Time;durP1;ratioP1;P1;durP2;ratioP2;P2;SDS_P1;SDS_P2;PMS_P1;PMS_P2;Temp;Humidity;BMP_temperature;BMP_pressure;BME280_temperature;BME280_humidity;BME280_pressure;Samples;Min_cycle;Max_cycle;Signal;HPM_P1;HPM_P2
2023/05/26 00:00:50;;;;;;;2.13;1.13;;;17.30;56.50;;;;;;4992684;28;20217;-51
2023/05/26 00:03:21;;;;;;;2.00;1.20;;;17.30;57.10;;;;;;4992780;28;20390;-52
2023/05/26 00:05:51;;;;;;;1.95;1.10;;;17.30;56.50;;;;;;4993246;28;20231;-53
2023/05/26 00:08:24;;;;;;;1.77;1.00;;;17.40;56.50;;;;;;4993174;28;20198;-50
2023/05/26 00:10:55;;;;;;;1.73;1.05;;;17.30;56.40;;;;;;4993698;28;20252;-49
2023/05/26 00:13:25;;;;;;;3.42;1.02;;;17.40;56.40;;;;;;4993153;28;20197;-51
2023/05/26 00:15:56;;;;;;;2.30;1.10;;;17.40;56.40;;;;;;4993930;28;20697;-52
2023/05/26 00:18:27;;;;;;;2.08;1.02;;;17.40;56.30;;;;;;4993073;28;20200;-52
2023/05/26 00:20:58;;;;;;;2.63;1.13;;;17.40;56.30;;;;;;4993458;28;20308;-50
2023/05/26 00:23:30;;;;;;;1.83;1.10;;;17.40;56.30;;;;;;4994029;28;20197;-51
2023/05/26 00:26:01;;;;;;;1.52;1.10;;;17.40;56.20;;;;;;4993489;28;20208;-52
2023/05/26 00:28:32;;;;;;;1.42;0.82;;;17.40;56.20;;;;;;4992236;28;20197;-49
2023/05/26 00:31:02;;;;;;;1.42;0.80;;;17.40;56.20;;;;;;4993253;28;20221;-49
2023/05/26 00:33:33;;;;;;;1.40;0.68;;;17.40;56.10;;;;;;4993871;28;20213;-49
2023/05/26 00:36:03;;;;;;;1.33;1.10;;;17.40;56.10;;;;;;4993433;28;20226;-50
2023/05/26 00:38:36;;;;;;;1.40;0.88;;;17.40;56.10;;;;;;4993184;28;20559;-49
2023/05/26 00:41:07;;;;;;;1.35;1.10;;;17.40;56.80;;;;;;4993629;28;20736;-50
2023/05/26 00:43:37;;;;;;;0.95;0.75;;;17.40;56.10;;;;;;4993019;28;20213;-50
2023/05/26 00:46:08;;;;;;;1.48;0.90;;;17.40;56.10;;;;;;4992926;28;20224;-50
2023/05/26 00:48:39;;;;;;;1.55;1.00;;;17.40;56.10;;;;;;4992354;28;20194;-49
2023/05/26 00:51:11;;;;;;;1.52;0.80;;;17.40;56.10;;;;;;4992746;28;20221;-50
2023/05/26 00:53:45;;;;;;;2.15;1.35;;;17.40;56.10;;;;;;4988055;28;20198;-52
2023/05/26 00:56:18;;;;;;;1.63;0.70;;;17.40;56.10;;;;;;4975609;28;20229;-54
2023/05/26 00:58:48;;;;;;;1.02;0.85;;;17.40;56.10;;;;;;4982999;28;20297;-50
2023/05/26 01:01:19;;;;;;;1.38;0.95;;;17.40;56.10;;;;;;4992205;28;20214;-50
2023/05/26 01:03:50;;;;;;;1.30;1.05;;;17.50;56.10;;;;;;4992487;28;20540;-49
2023/05/26 01:06:22;;;;;;;1.02;0.80;;;17.50;56.10;;;;;;4991838;28;20194;-53
2023/05/26 01:08:55;;;;;;;2.33;0.82;;;17.50;56.00;;;;;;4992747;28;20260;-51
2023/05/26 01:11:30;;;;;;;1.38;0.90;;;17.50;56.00;;;;;;4991706;28;20218;-49
2023/05/26 01:14:03;;;;;;;1.15;0.82;;;17.40;55.90;;;;;;4991919;28;20201;-53
2023/05/26 01:16:40;;;;;;;1.77;1.00;;;17.50;55.90;;;;;;4992089;28;20828;-52
2023/05/26 01:19:35;;;;;;;1.75;0.82;;;17.50;55.90;;;;;;4992302;28;20299;-53
2023/05/26 01:22:19;;;;;;;1.23;0.80;;;17.50;55.90;;;;;;4992355;28;20630;-50
2023/05/26 01:25:01;;;;;;;1.00;0.88;;;17.50;55.80;;;;;;4992346;28;20197;-50
2023/05/26 01:27:44;;;;;;;1.38;0.80;;;17.50;55.80;;;;;;4991818;28;20281;-50
2023/05/26 01:30:18;;;;;;;1.52;0.70;;;17.50;55.80;;;;;;4990825;28;20193;-52
2023/05/26 01:32:52;;;;;;;0.80;0.80;;;17.50;55.70;;;;;;4992074;28;20200;-53
2023/05/26 01:35:22;;;;;;;1.35;1.10;;;17.50;55.60;;;;;;4990875;28;20240;-51
2023/05/26 01:37:54;;;;;;;1.02;0.60;;;17.50;55.50;;;;;;4991746;28;20197;-53
2023/05/26 01:40:25;;;;;;;2.47;0.70;;;17.50;55.50;;;;;;4987068;28;20216;-52
2023/05/26 01:43:00;;;;;;;2.70;0.80;;;17.50;55.50;;;;;;4990737;28;20204;-50
2023/05/26 01:45:38;;;;;;;1.33;0.82;;;17.50;55.40;;;;;;4990818;28;20197;-49
2023/05/26 01:48:11;;;;;;;3.10;0.90;;;17.50;55.30;;;;;;4990947;28;20193;-50
2023/05/26 01:50:51;;;;;;;1.00;0.70;;;17.50;55.30;;;;;;4972100;28;20218;-50
2023/05/26 01:53:23;;;;;;;0.90;0.68;;;17.50;55.30;;;;;;4972713;28;20205;-53
2023/05/26 01:55:58;;;;;;;0.75;0.60;;;17.60;55.30;;;;;;4991479;28;20233;-54
2023/05/26 01:58:30;;;;;;;2.05;0.75;;;17.50;55.40;;;;;;4990532;28;20200;-53
2023/05/26 02:01:03;;;;;;;2.30;0.70;;;17.60;55.50;;;;;;4991275;28;20225;-53
2023/05/26 02:03:33;;;;;;;0.77;0.63;;;17.60;55.50;;;;;;4991005;28;20205;-52
2023/05/26 02:06:04;;;;;;;1.73;0.95;;;17.60;55.50;;;;;;4990870;28;20228;-53
2023/05/26 02:08:35;;;;;;;1.17;0.82;;;17.60;55.50;;;;;;4990505;28;20221;-52
2023/05/26 02:11:06;;;;;;;0.77;0.70;;;17.60;55.60;;;;;;4991333;28;20316;-50
2023/05/26 02:13:37;;;;;;;1.83;0.88;;;17.60;56.10;;;;;;4990481;28;20208;-51
2023/05/26 02:16:11;;;;;;;1.00;0.70;;;17.60;55.50;;;;;;4991866;28;20248;-50
2023/05/26 02:18:41;;;;;;;1.08;0.70;;;17.60;55.40;;;;;;4991420;28;20209;-49
2023/05/26 02:21:12;;;;;;;1.38;1.00;;;17.60;55.40;;;;;;4991667;28;20228;-50
2023/05/26 02:23:44;;;;;;;1.70;0.77;;;17.60;55.40;;;;;;4990925;28;20204;-51
2023/05/26 02:26:15;;;;;;;1.10;0.60;;;17.60;55.40;;;;;;4990947;28;20197;-53
2023/05/26 02:28:45;;;;;;;1.55;0.73;;;17.70;55.50;;;;;;4990164;28;20190;-52
2023/05/26 02:31:18;;;;;;;1.45;0.73;;;17.60;55.40;;;;;;4991163;28;20217;-51
2023/05/26 02:33:49;;;;;;;1.30;0.80;;;17.60;55.30;;;;;;4990909;28;20281;-52
2023/05/26 02:36:19;;;;;;;0.63;0.52;;;17.70;55.40;;;;;;4991147;28;20701;-53
2023/05/26 02:38:50;;;;;;;1.08;0.52;;;17.70;55.40;;;;;;4991254;28;20296;-51
2023/05/26 02:41:21;;;;;;;3.10;0.73;;;17.70;55.40;;;;;;4990843;28;20228;-51
2023/05/26 02:43:51;;;;;;;0.60;0.60;;;17.70;55.40;;;;;;4991088;28;20654;-50
2023/05/26 02:46:24;;;;;;;0.65;0.60;;;17.70;55.40;;;;;;4991312;28;20563;-51
2023/05/26 02:48:54;;;;;;;2.13;0.80;;;17.70;55.40;;;;;;4990579;28;20700;-51
2023/05/26 02:51:25;;;;;;;0.90;0.60;;;17.70;55.30;;;;;;4991435;28;20228;-54
2023/05/26 02:53:56;;;;;;;1.10;0.60;;;17.70;55.30;;;;;;4990740;28;20203;-51
2023/05/26 02:56:27;;;;;;;2.22;0.80;;;17.70;55.30;;;;;;4991236;28;20225;-54
2023/05/26 02:58:58;;;;;;;0.90;0.80;;;17.70;55.30;;;;;;4989970;28;20293;-53
2023/05/26 03:01:30;;;;;;;1.67;0.80;;;17.70;55.30;;;;;;4994144;28;20272;-53
2023/05/26 03:04:01;;;;;;;1.30;0.90;;;17.70;55.20;;;;;;4994817;28;20205;-53
2023/05/26 03:06:32;;;;;;;1.23;0.68;;;17.80;55.20;;;;;;4994610;28;20646;-53
2023/05/26 03:09:02;;;;;;;0.88;0.73;;;17.80;55.20;;;;;;4994441;28;20721;-54
2023/05/26 03:11:33;;;;;;;1.50;0.90;;;17.80;55.20;;;;;;4989472;28;20236;-49
2023/05/26 03:14:04;;;;;;;2.55;0.90;;;17.80;55.20;;;;;;4986291;28;20289;-50
2023/05/26 03:16:36;;;;;;;1.65;0.85;;;17.80;55.20;;;;;;4995557;28;20217;-49
2023/05/26 03:19:07;;;;;;;1.80;0.70;;;17.80;55.20;;;;;;4974676;28;20206;-51
2023/05/26 03:21:37;;;;;;;1.38;0.70;;;17.80;55.20;;;;;;4992968;28;20216;-51
2023/05/26 03:24:08;;;;;;;1.55;0.80;;;17.80;55.20;;;;;;4994383;28;20197;-50
2023/05/26 03:26:39;;;;;;;1.60;0.60;;;17.80;55.20;;;;;;4994529;28;20189;-54
2023/05/26 03:29:10;;;;;;;0.93;0.70;;;17.90;55.30;;;;;;4988145;28;20317;-53
2023/05/26 03:31:42;;;;;;;1.83;0.85;;;17.80;55.20;;;;;;4983656;28;20725;-49
2023/05/26 03:34:13;;;;;;;0.82;0.70;;;17.80;55.20;;;;;;4992107;28;20190;-54
2023/05/26 03:36:45;;;;;;;0.88;0.60;;;17.80;55.20;;;;;;4992915;28;20217;-51
2023/05/26 03:39:15;;;;;;;2.30;0.88;;;17.80;55.10;;;;;;4993593;28;20553;-51
2023/05/26 03:41:46;;;;;;;2.45;0.95;;;17.90;55.10;;;;;;4993186;28;20225;-51
2023/05/26 03:44:18;;;;;;;2.00;0.90;;;17.90;55.10;;;;;;4994151;28;20205;-49
2023/05/26 03:46:52;;;;;;;1.15;0.70;;;17.90;55.10;;;;;;4993281;28;20198;-50
2023/05/26 03:49:22;;;;;;;1.50;0.82;;;17.90;55.10;;;;;;4993951;28;20198;-50
2023/05/26 03:51:53;;;;;;;1.58;0.77;;;17.90;55.10;;;;;;4992466;28;20251;-55
2023/05/26 03:54:24;;;;;;;1.10;0.90;;;17.90;55.00;;;;;;4993816;28;20702;-51
2023/05/26 03:56:55;;;;;;;1.52;0.90;;;17.90;55.00;;;;;;4993289;28;20271;-50
2023/05/26 03:59:25;;;;;;;1.65;0.90;;;18.00;55.10;;;;;;4992720;28;20657;-51
2023/05/26 04:01:58;;;;;;;1.33;0.90;;;18.00;55.10;;;;;;4993086;28;20681;-49
2023/05/26 04:04:28;;;;;;;1.60;0.80;;;18.00;55.10;;;;;;4993615;28;20201;-51
2023/05/26 04:06:59;;;;;;;1.80;0.73;;;18.00;55.00;;;;;;4993801;28;20197;-53
2023/05/26 04:09:30;;;;;;;1.27;0.90;;;18.00;55.00;;;;;;4992535;28;20217;-52
2023/05/26 04:12:00;;;;;;;1.15;0.75;;;18.00;54.90;;;;;;4992478;28;20217;-50
2023/05/26 04:14:31;;;;;;;3.45;0.95;;;18.00;54.90;;;;;;4993043;28;20202;-50
2023/05/26 04:17:04;;;;;;;2.25;1.00;;;18.10;54.90;;;;;;4993090;28;20229;-53
2023/05/26 04:19:34;;;;;;;1.40;0.80;;;18.10;54.90;;;;;;4993620;28;20224;-51
2023/05/26 04:22:05;;;;;;;2.97;0.82;;;18.10;54.80;;;;;;4992139;28;20572;-50
2023/05/26 04:24:36;;;;;;;2.83;1.00;;;18.10;54.90;;;;;;4993633;28;20650;-52
2023/05/26 04:27:07;;;;;;;1.60;0.82;;;18.10;54.90;;;;;;4992920;28;20205;-50
2023/05/26 04:29:38;;;;;;;1.52;0.90;;;18.10;54.90;;;;;;4993319;28;20208;-52
2023/05/26 04:32:11;;;;;;;1.27;0.80;;;18.10;54.90;;;;;;4992448;28;20697;-54
2023/05/26 04:34:44;;;;;;;1.58;0.70;;;18.10;54.90;;;;;;4993107;28;20194;-53
2023/05/26 04:37:14;;;;;;;2.08;0.98;;;18.10;54.90;;;;;;4992324;28;20787;-51
2023/05/26 04:39:45;;;;;;;2.47;0.82;;;18.10;54.90;;;;;;4993088;28;20681;-52
2023/05/26 04:42:16;;;;;;;2.22;0.90;;;18.10;54.90;;;;;;4992689;28;20257;-52
2023/05/26 04:44:46;;;;;;;3.53;0.82;;;18.20;55.00;;;;;;4992225;28;20197;-51
2023/05/26 04:47:19;;;;;;;1.60;0.77;;;18.20;55.00;;;;;;4991916;28;20193;-53
2023/05/26 04:49:50;;;;;;;2.78;1.02;;;18.20;55.00;;;;;;4973490;28;20206;-49
2023/05/26 04:52:20;;;;;;;2.60;1.08;;;18.20;55.10;;;;;;4984573;28;20287;-55
2023/05/26 04:54:51;;;;;;;2.25;0.90;;;18.20;55.00;;;;;;4993023;28;20198;-52
2023/05/26 04:57:22;;;;;;;2.55;0.95;;;18.20;55.00;;;;;;4993317;28;20236;-54
2023/05/26 04:59:52;;;;;;;1.35;0.75;;;18.20;55.00;;;;;;4992409;28;20202;-53
2023/05/26 05:02:25;;;;;;;1.02;0.80;;;18.20;55.00;;;;;;4993219;28;20300;-54
2023/05/26 05:04:56;;;;;;;2.67;0.95;;;18.20;54.90;;;;;;4992284;28;20256;-55
2023/05/26 05:07:26;;;;;;;2.05;1.10;;;18.20;54.90;;;;;;4992277;28;20204;-49
2023/05/26 05:09:57;;;;;;;1.10;0.80;;;18.20;54.90;;;;;;4992847;28;20209;-52
2023/05/26 05:12:28;;;;;;;1.70;0.93;;;18.20;54.90;;;;;;4992773;28;20584;-55
2023/05/26 05:14:59;;;;;;;1.25;0.90;;;18.20;54.90;;;;;;4992722;28;20196;-54
2023/05/26 05:17:31;;;;;;;1.98;0.90;;;18.20;54.90;;;;;;4992091;28;20229;-56
2023/05/26 05:20:02;;;;;;;1.88;0.90;;;18.20;54.90;;;;;;4991712;28;20200;-52
2023/05/26 05:22:33;;;;;;;1.35;0.98;;;18.30;55.00;;;;;;4984047;28;20605;-54
2023/05/26 05:25:03;;;;;;;2.63;1.10;;;18.20;54.90;;;;;;4971866;28;20194;-54
2023/05/26 05:27:34;;;;;;;1.80;0.90;;;18.30;55.00;;;;;;4991577;28;20225;-54
2023/05/26 05:30:05;;;;;;;1.92;1.13;;;18.20;54.90;;;;;;4991743;28;20201;-53
2023/05/26 05:32:37;;;;;;;1.98;1.05;;;18.30;55.00;;;;;;4991460;28;20210;-55
2023/05/26 05:35:10;;;;;;;1.73;1.38;;;18.30;54.70;;;;;;4991298;28;20209;-52
2023/05/26 05:37:40;;;;;;;2.20;1.50;;;18.30;54.00;;;;;;4992354;28;20221;-51
2023/05/26 05:40:12;;;;;;;2.75;1.40;;;18.30;53.50;;;;;;4991174;28;20201;-52
2023/05/26 05:42:42;;;;;;;1.73;1.00;;;18.30;53.20;;;;;;4992014;28;20209;-52
2023/05/26 05:45:13;;;;;;;1.67;1.00;;;18.30;53.00;;;;;;4987760;28;20202;-55
2023/05/26 05:47:46;;;;;;;4.25;1.58;;;18.30;52.90;;;;;;4991569;28;20205;-50
2023/05/26 05:50:17;;;;;;;3.53;1.55;;;18.30;52.90;;;;;;4991090;28;20201;-54
2023/05/26 05:52:47;;;;;;;3.95;1.50;;;18.30;52.90;;;;;;4990190;28;20441;-53
2023/05/26 05:55:18;;;;;;;2.72;1.33;;;18.30;52.90;;;;;;4991174;28;20197;-54
2023/05/26 05:57:49;;;;;;;4.30;1.27;;;18.30;52.90;;;;;;4990124;28;20229;-52
2023/05/26 06:00:20;;;;;;;5.03;1.65;;;18.30;52.90;;;;;;4991128;28;20197;-56
2023/05/26 06:02:52;;;;;;;3.17;1.73;;;18.40;52.90;;;;;;4990583;28;20201;-54
2023/05/26 06:05:23;;;;;;;4.30;1.85;;;18.40;52.90;;;;;;4991563;28;20213;-57
2023/05/26 06:07:54;;;;;;;3.72;1.80;;;18.40;52.90;;;;;;4990497;28;20198;-52
2023/05/26 06:10:24;;;;;;;3.30;1.85;;;18.40;52.90;;;;;;4991632;28;20573;-52
2023/05/26 06:12:55;;;;;;;5.63;1.65;;;18.40;52.90;;;;;;4991093;28;20689;-51
2023/05/26 06:15:25;;;;;;;3.65;1.30;;;18.40;52.90;;;;;;4991228;28;20197;-57
2023/05/26 06:17:58;;;;;;;4.43;1.70;;;18.50;52.90;;;;;;4990711;28;20240;-55
2023/05/26 06:20:29;;;;;;;4.05;1.75;;;18.50;52.90;;;;;;4990426;28;20198;-55
2023/05/26 06:22:59;;;;;;;3.42;1.63;;;18.50;52.90;;;;;;4989236;28;20200;-55
2023/05/26 06:25:30;;;;;;;3.38;1.60;;;18.50;53.00;;;;;;4990984;28;20197;-55
2023/05/26 06:28:01;;;;;;;4.18;1.58;;;18.50;53.40;;;;;;4995060;28;20200;-57
2023/05/26 06:30:31;;;;;;;2.55;1.30;;;18.50;53.80;;;;;;5004900;28;20730;-57
2023/05/26 06:33:04;;;;;;;3.40;1.40;;;18.50;53.90;;;;;;5000943;28;20248;-57
2023/05/26 06:35:34;;;;;;;2.47;1.50;;;18.50;53.80;;;;;;4993450;28;20627;-56
2023/05/26 06:38:05;;;;;;;4.43;1.45;;;18.50;53.90;;;;;;4995090;28;20587;-54
2023/05/26 06:40:36;;;;;;;2.17;1.42;;;18.50;53.80;;;;;;4994071;28;20190;-54
2023/05/26 06:43:06;;;;;;;3.90;1.48;;;18.50;53.90;;;;;;4994669;28;20204;-56
2023/05/26 06:45:37;;;;;;;2.90;1.48;;;18.50;53.90;;;;;;4995541;28;20200;-56
2023/05/26 06:48:10;;;;;;;3.53;1.38;;;18.50;53.80;;;;;;4994715;28;20197;-51
2023/05/26 06:50:40;;;;;;;3.15;1.50;;;18.50;53.80;;;;;;4995411;28;20217;-53
2023/05/26 06:53:11;;;;;;;3.58;1.40;;;18.50;53.80;;;;;;4994782;28;20620;-55
2023/05/26 06:55:41;;;;;;;2.25;1.35;;;18.50;53.90;;;;;;4981533;28;20202;-53
2023/05/26 06:58:12;;;;;;;3.28;1.42;;;18.50;53.90;;;;;;4987687;28;20225;-54
2023/05/26 07:00:59;;;;;;;2.45;1.33;;;18.50;53.90;;;;;;4994756;28;20217;-53
2023/05/26 07:03:32;;;;;;;2.75;1.38;;;18.40;54.00;;;;;;4995345;28;20280;-50
2023/05/26 07:06:02;;;;;;;2.22;1.30;;;18.40;54.00;;;;;;4994825;28;20193;-53
2023/05/26 07:08:33;;;;;;;3.05;1.48;;;18.40;54.10;;;;;;4994511;28;20193;-50
2023/05/26 07:11:04;;;;;;;2.75;1.27;;;18.40;54.10;;;;;;4994545;28;20231;-57
2023/05/26 07:13:35;;;;;;;2.92;1.45;;;18.40;54.20;;;;;;4993948;28;20200;-55
2023/05/26 07:16:06;;;;;;;2.03;1.05;;;18.40;54.20;;;;;;4994380;28;20197;-55
2023/05/26 07:18:38;;;;;;;2.88;1.45;;;18.40;54.20;;;;;;4990175;28;20204;-54
2023/05/26 07:21:09;;;;;;;1.73;1.10;;;18.40;54.20;;;;;;4994826;28;20217;-55
2023/05/26 07:23:40;;;;;;;3.40;1.25;;;18.40;54.20;;;;;;4994261;28;20225;-52
2023/05/26 07:26:10;;;;;;;2.25;1.13;;;18.40;54.10;;;;;;4993484;28;20197;-55
2023/05/26 07:28:42;;;;;;;2.60;1.20;;;18.40;54.10;;;;;;4997014;28;20201;-55
2023/05/26 07:31:12;;;;;;;1.92;1.20;;;18.40;54.20;;;;;;4994624;28;20761;-52
2023/05/26 07:33:45;;;;;;;3.10;1.48;;;18.30;54.10;;;;;;4994614;28;20206;-54
2023/05/26 07:36:15;;;;;;;2.25;1.17;;;18.30;54.10;;;;;;4994608;28;20205;-55
2023/05/26 07:38:46;;;;;;;1.77;1.05;;;18.40;54.30;;;;;;4994798;28;20202;-55
2023/05/26 07:41:17;;;;;;;2.10;1.20;;;18.40;54.30;;;;;;4994638;28;20232;-53
2023/05/26 07:43:47;;;;;;;1.98;1.20;;;18.40;54.40;;;;;;4994187;28;20708;-57
2023/05/26 07:46:18;;;;;;;2.22;1.30;;;18.40;54.50;;;;;;4993776;28;20201;-55
2023/05/26 07:48:51;;;;;;;4.28;1.40;;;18.40;54.50;;;;;;4977597;28;20197;-54
2023/05/26 07:51:21;;;;;;;3.15;1.20;;;18.40;54.50;;;;;;4975031;28;20231;-53
2023/05/26 07:53:52;;;;;;;1.75;1.15;;;18.40;54.50;;;;;;4974760;28;20206;-55
2023/05/26 07:56:23;;;;;;;2.67;1.25;;;18.40;54.50;;;;;;4974493;28;20203;-53
2023/05/26 07:58:53;;;;;;;2.10;1.17;;;18.40;54.50;;;;;;5009658;28;20207;-55
2023/05/26 08:01:24;;;;;;;2.38;1.48;;;18.30;54.40;;;;;;5013516;28;20696;-52
2023/05/26 08:03:56;;;;;;;2.25;1.23;;;18.30;54.40;;;;;;5013521;28;20657;-51
2023/05/26 08:06:27;;;;;;;2.13;1.15;;;18.30;54.40;;;;;;5013754;28;20668;-52
2023/05/26 08:08:58;;;;;;;1.77;1.27;;;18.30;54.40;;;;;;5013578;28;20193;-55
2023/05/26 08:11:28;;;;;;;2.10;1.35;;;18.30;54.50;;;;;;5013626;28;20216;-54
2023/05/26 08:13:59;;;;;;;1.85;1.30;;;18.30;54.50;;;;;;5013201;28;20201;-52
2023/05/26 08:16:30;;;;;;;2.90;1.23;;;18.30;54.40;;;;;;5013981;28;20201;-56
2023/05/26 08:19:02;;;;;;;2.50;1.10;;;18.30;54.40;;;;;;5003662;28;20279;-53
2023/05/26 08:21:33;;;;;;;2.00;1.27;;;18.30;54.50;;;;;;4993436;28;20705;-56
2023/05/26 08:24:03;;;;;;;1.90;1.20;;;18.30;54.60;;;;;;4993787;28;20683;-56
2023/05/26 08:26:34;;;;;;;2.03;1.23;;;18.30;54.60;;;;;;4993652;28;20208;-54
2023/05/26 08:29:06;;;;;;;1.50;1.15;;;18.30;54.60;;;;;;5012888;28;20197;-54
2023/05/26 08:31:36;;;;;;;2.35;1.30;;;18.30;54.60;;;;;;5013176;28;20216;-55
2023/05/26 08:34:09;;;;;;;2.53;1.20;;;18.30;54.60;;;;;;5013383;28;20223;-55
2023/05/26 08:36:39;;;;;;;2.47;1.10;;;18.30;54.60;;;;;;5013006;28;20204;-54
2023/05/26 08:39:10;;;;;;;2.15;1.10;;;18.30;54.60;;;;;;5013504;28;20204;-56
2023/05/26 08:41:53;;;;;;;2.67;1.10;;;18.30;54.60;;;;;;5012663;28;20225;-55
2023/05/26 08:44:25;;;;;;;2.55;1.20;;;18.30;54.60;;;;;;5012790;28;20605;-54
2023/05/26 08:46:57;;;;;;;1.70;1.00;;;18.30;54.60;;;;;;5012839;28;20192;-53
2023/05/26 08:49:34;;;;;;;2.08;1.35;;;18.30;54.60;;;;;;5005587;28;20193;-55
2023/05/26 08:52:10;;;;;;;1.38;1.20;;;18.30;54.60;;;;;;4993097;28;20630;-54
2023/05/26 08:54:41;;;;;;;2.67;1.10;;;18.30;54.60;;;;;;4993369;28;20197;-56
2023/05/26 08:57:14;;;;;;;3.58;1.20;;;18.30;54.60;;;;;;4996832;28;20237;-53
2023/05/26 08:59:45;;;;;;;2.15;1.30;;;18.30;54.60;;;;;;5012588;28;20200;-55
2023/05/26 09:02:17;;;;;;;2.33;1.00;;;18.30;54.60;;;;;;5012502;28;20217;-54
2023/05/26 09:04:49;;;;;;;1.77;1.10;;;18.30;54.60;;;;;;4993185;28;20673;-53
2023/05/26 09:07:20;;;;;;;1.90;1.30;;;18.30;54.60;;;;;;4993123;28;20661;-55
2023/05/26 09:09:51;;;;;;;1.30;0.80;;;18.30;54.50;;;;;;4990008;28;20205;-55
2023/05/26 09:12:22;;;;;;;1.30;1.20;;;18.30;54.40;;;;;;4992415;28;20279;-57
2023/05/26 09:14:52;;;;;;;2.50;1.05;;;18.30;54.40;;;;;;4993159;28;20197;-55
2023/05/26 09:17:23;;;;;;;1.90;1.00;;;18.30;54.40;;;;;;4993052;28;20581;-56
2023/05/26 09:20:01;;;;;;;2.17;1.00;;;18.30;54.40;;;;;;4992872;28;20560;-56
2023/05/26 09:22:35;;;;;;;2.58;0.95;;;18.30;54.40;;;;;;4992760;28;20218;-55
2023/05/26 09:25:07;;;;;;;1.48;1.05;;;18.30;54.40;;;;;;4992969;28;20205;-55
2023/05/26 09:27:38;;;;;;;1.92;1.05;;;18.30;54.40;;;;;;4999899;28;20216;-53
2023/05/26 09:30:10;;;;;;;1.08;0.80;;;18.30;54.40;;;;;;5011837;28;20197;-56
2023/05/26 09:32:41;;;;;;;2.60;1.05;;;18.30;54.50;;;;;;5012072;28;20228;-56
2023/05/26 09:35:13;;;;;;;1.17;1.08;;;18.30;54.50;;;;;;5012301;28;20212;-56
2023/05/26 09:37:47;;;;;;;2.35;1.25;;;18.30;54.50;;;;;;5012096;28;20225;-55
2023/05/26 09:40:18;;;;;;;1.30;0.80;;;18.30;54.40;;;;;;4993753;28;20196;-54
2023/05/26 09:42:55;;;;;;;1.85;1.30;;;18.30;54.40;;;;;;4991359;28;20202;-56
2023/05/26 09:45:26;;;;;;;2.70;1.30;;;18.30;54.60;;;;;;4988700;28;20198;-56
2023/05/26 09:47:59;;;;;;;2.15;1.45;;;18.30;54.60;;;;;;4977770;28;20201;-53
2023/05/26 09:50:33;;;;;;;2.33;1.40;;;18.30;54.60;;;;;;4975189;28;20201;-55
2023/05/26 09:53:05;;;;;;;1.85;1.33;;;18.30;54.60;;;;;;4991674;28;20229;-55
2023/05/26 09:55:36;;;;;;;1.23;1.00;;;18.30;54.60;;;;;;4991262;28;20603;-56
2023/05/26 09:58:08;;;;;;;1.95;1.00;;;18.30;54.60;;;;;;5002819;28;20228;-56
2023/05/26 10:00:40;;;;;;;2.10;1.38;;;18.30;54.60;;;;;;4992054;28;20193;-56
2023/05/26 10:03:12;;;;;;;2.28;1.30;;;18.30;54.60;;;;;;4990131;28;20560;-56
2023/05/26 10:05:46;;;;;;;2.63;1.17;;;18.30;54.60;;;;;;4991841;28;20205;-56
2023/05/26 10:08:21;;;;;;;2.17;1.42;;;18.30;54.60;;;;;;4990770;28;20216;-56
2023/05/26 10:10:53;;;;;;;1.75;1.17;;;18.30;54.60;;;;;;4990364;28;20271;-56
2023/05/26 10:13:23;;;;;;;2.95;1.20;;;18.30;54.60;;;;;;4990994;28;20214;-57
2023/05/26 10:15:54;;;;;;;2.45;1.10;;;18.30;54.60;;;;;;4990034;28;20197;-56
2023/05/26 10:18:25;;;;;;;2.13;1.38;;;18.30;54.60;;;;;;4991242;28;20697;-56
2023/05/26 10:20:59;;;;;;;2.33;1.42;;;18.30;54.60;;;;;;4991498;28;20221;-54
2023/05/26 10:23:37;;;;;;;1.98;1.02;;;18.30;54.60;;;;;;4991070;28;20197;-55
2023/05/26 10:26:10;;;;;;;1.92;1.00;;;18.30;54.60;;;;;;4990567;28;20661;-54
2023/05/26 10:28:45;;;;;;;1.08;0.98;;;18.30;54.60;;;;;;5007877;28;20255;-55
2023/05/26 10:31:29;;;;;;;1.15;1.00;;;18.30;54.60;;;;;;5003146;28;20816;-54
2023/05/26 10:34:00;;;;;;;2.30;1.33;;;18.30;54.60;;;;;;4991353;28;20227;-54
2023/05/26 10:36:34;;;;;;;2.03;1.13;;;18.30;54.60;;;;;;4991503;28;20571;-49
2023/05/26 10:39:11;;;;;;;1.50;1.00;;;18.40;54.60;;;;;;4990953;28;20213;-55
2023/05/26 10:41:50;;;;;;;2.97;1.25;;;18.30;54.60;;;;;;4988903;28;20213;-56
2023/05/26 10:44:43;;;;;;;1.50;1.10;;;18.30;54.60;;;;;;4990733;28;20213;-55
2023/05/26 10:47:18;;;;;;;1.92;1.20;;;18.30;54.60;;;;;;4990871;28;20189;-55
2023/05/26 10:49:58;;;;;;;2.10;1.20;;;18.30;54.60;;;;;;4989533;28;20205;-53
2023/05/26 10:52:48;;;;;;;1.98;1.02;;;18.40;54.60;;;;;;4989441;28;20220;-56
2023/05/26 10:55:32;;;;;;;1.10;0.85;;;18.40;54.70;;;;;;4990935;28;20202;-58
2023/05/26 10:58:35;;;;;;;1.58;1.10;;;18.40;54.60;;;;;;4990685;28;20245;-57
2023/05/26 11:01:08;;;;;;;1.92;1.00;;;18.40;54.60;;;;;;4992226;28;20216;-54
2023/05/26 11:03:40;;;;;;;1.58;1.17;;;18.40;54.60;;;;;;5003501;28;20220;-54
2023/05/26 11:06:12;;;;;;;1.13;1.02;;;18.40;54.70;;;;;;5009375;28;20197;-51
2023/05/26 11:08:47;;;;;;;2.47;1.13;;;18.40;54.70;;;;;;5009177;28;20228;-52
2023/05/26 11:11:29;;;;;;;2.65;1.10;;;18.40;54.70;;;;;;5009241;28;20705;-54
2023/05/26 11:14:12;;;;;;;1.13;0.90;;;18.40;54.70;;;;;;4997705;28;20649;-53
2023/05/26 11:16:46;;;;;;;1.88;1.10;;;18.40;54.70;;;;;;5006358;28;20272;-56
2023/05/26 11:19:17;;;;;;;1.40;1.00;;;18.40;54.70;;;;;;5007963;28;20234;-55
2023/05/26 11:21:47;;;;;;;4.05;1.20;;;18.40;54.70;;;;;;4993876;28;20221;-56
2023/05/26 11:24:20;;;;;;;1.42;0.90;;;18.40;54.80;;;;;;4994602;28;20217;-57
2023/05/26 11:26:51;;;;;;;1.83;1.00;;;18.40;54.80;;;;;;5007525;28;20189;-57
2023/05/26 11:29:25;;;;;;;1.38;0.98;;;18.40;54.80;;;;;;5014041;28;20189;-56
2023/05/26 11:31:56;;;;;;;1.30;1.20;;;18.40;54.80;;;;;;5010901;28;20307;-57
2023/05/26 11:34:27;;;;;;;2.35;1.08;;;18.40;54.70;;;;;;5013399;28;20551;-57
2023/05/26 11:36:59;;;;;;;1.73;1.05;;;18.40;54.70;;;;;;5005229;28;20188;-53
2023/05/26 11:39:35;;;;;;;2.05;1.10;;;18.40;54.80;;;;;;4996775;28;20221;-56
2023/05/26 11:42:13;;;;;;;1.77;1.20;;;18.40;54.80;;;;;;5009910;28;20707;-54
2023/05/26 11:44:46;;;;;;;2.55;1.17;;;18.40;54.80;;;;;;5009513;28;20200;-57
2023/05/26 11:47:16;;;;;;;1.40;1.00;;;18.40;54.70;;;;;;5014214;28;20268;-55
2023/05/26 11:49:50;;;;;;;1.52;1.08;;;18.50;54.80;;;;;;5013284;28;20204;-55
2023/05/26 11:52:23;;;;;;;1.75;1.05;;;18.40;54.70;;;;;;5011726;28;20259;-55
2023/05/26 11:54:57;;;;;;;1.67;1.00;;;18.40;54.70;;;;;;5008942;28;20192;-56
2023/05/26 11:57:31;;;;;;;1.10;1.00;;;18.40;54.70;;;;;;5013942;28;20211;-56
2023/05/26 12:00:09;;;;;;;1.52;1.17;;;18.40;54.70;;;;;;5008249;28;20201;-53
2023/05/26 12:02:39;;;;;;;1.30;0.98;;;18.40;54.70;;;;;;4993807;28;20209;-55
2023/05/26 12:05:22;;;;;;;0.88;0.82;;;18.40;54.70;;;;;;5008220;28;20633;-56
2023/05/26 12:08:05;;;;;;;1.95;1.20;;;18.40;54.80;;;;;;5009454;28;20196;-54
2023/05/26 12:10:38;;;;;;;1.73;0.98;;;18.40;54.70;;;;;;5009487;28;20208;-53
2023/05/26 12:13:09;;;;;;;1.40;1.00;;;18.40;54.80;;;;;;5013200;28;20189;-57
2023/05/26 12:15:40;;;;;;;1.17;0.85;;;18.40;54.70;;;;;;5013790;28;20196;-54
2023/05/26 12:18:11;;;;;;;1.75;1.10;;;18.40;54.80;;;;;;5013460;28;20228;-55
2023/05/26 12:20:44;;;;;;;1.08;0.90;;;18.40;54.80;;;;;;5009431;28;20217;-56
2023/05/26 12:23:25;;;;;;;2.15;1.05;;;18.50;54.80;;;;;;5013314;28;20192;-54
2023/05/26 12:25:58;;;;;;;2.00;0.98;;;18.50;54.80;;;;;;5010706;28;20251;-57
2023/05/26 12:28:29;;;;;;;1.00;0.80;;;18.50;54.80;;;;;;5007347;28;20665;-54
2023/05/26 12:30:59;;;;;;;1.95;0.82;;;18.50;54.80;;;;;;5008716;28;20677;-56
2023/05/26 12:33:30;;;;;;;1.25;1.10;;;18.50;54.80;;;;;;5005056;28;20201;-55
2023/05/26 12:36:00;;;;;;;1.90;1.15;;;18.50;54.80;;;;;;4990870;28;20189;-54
2023/05/26 12:38:42;;;;;;;1.30;0.95;;;18.50;54.80;;;;;;4993549;28;20615;-54
2023/05/26 12:41:14;;;;;;;1.13;0.75;;;18.50;54.80;;;;;;4992334;28;20252;-54
2023/05/26 12:43:45;;;;;;;1.77;1.20;;;18.50;54.80;;;;;;4993178;28;20197;-52
2023/05/26 12:46:16;;;;;;;1.38;1.00;;;18.50;54.80;;;;;;4993778;28;20198;-51
2023/05/26 12:48:46;;;;;;;1.58;1.00;;;18.50;54.80;;;;;;4992039;28;20202;-56
2023/05/26 12:51:18;;;;;;;1.20;0.80;;;18.50;54.80;;;;;;4992586;28;20209;-57
2023/05/26 12:53:48;;;;;;;1.80;0.98;;;18.50;54.80;;;;;;4993030;28;20190;-57
2023/05/26 12:56:21;;;;;;;1.58;0.98;;;18.50;54.80;;;;;;4993112;28;20201;-56
2023/05/26 12:58:52;;;;;;;1.42;0.90;;;18.50;54.80;;;;;;4991439;28;20221;-56
2023/05/26 13:01:22;;;;;;;1.38;0.70;;;18.50;54.80;;;;;;4993055;28;20209;-55
2023/05/26 13:03:54;;;;;;;2.05;0.98;;;18.50;54.90;;;;;;4990739;28;20196;-55
2023/05/26 13:06:24;;;;;;;1.63;0.95;;;18.50;54.80;;;;;;4991336;28;20205;-57
2023/05/26 13:08:56;;;;;;;0.82;0.70;;;18.50;54.80;;;;;;4992327;28;20665;-57
2023/05/26 13:11:28;;;;;;;1.30;1.00;;;18.50;54.90;;;;;;4992671;28;20214;-56
2023/05/26 13:13:59;;;;;;;1.42;1.10;;;18.50;54.80;;;;;;4992747;28;20197;-56